sensor_id;sensor_type;location;lat;lon;timestamp;P1;durP1;ratioP1;P2;durP2;ratioP2
75626;SDS011;67372;49.404;11.034;2023-08-20T00:02:26;13.18;;;9.02;;
75626;SDS011;67372;49.404;11.034;2023-08-20T00:04:57;12.93;;;8.55;;
75626;SDS011;67372;49.404;11.034;2023-08-20T00:07:24;12.80;;;9.30;;
75626;SDS011;67372;49.404;11.034;2023-08-20T00:09:51;11.68;;;8.88;;
75626;SDS011;67372;49.404;11.034;2023-08-20T00:12:17;12.73;;;8.88;;
75626;SDS011;67372;49.404;11.034;2023-08-20T00:14:53;12.02;;;8.77;;
75626;SDS011;67372;49.404;11.034;2023-08-20T00:17:25;14.57;;;9.48;;
75626;SDS011;67372;49.404;11.034;2023-08-20T00:19:51;11.95;;;9.10;;
75626;SDS011;67372;49.404;11.034;2023-08-20T00:22:18;11.63;;;9.07;;
75626;SDS011;67372;49.404;11.034;2023-08-20T00:24:47;13.63;;;9.32;;
75626;SDS011;67372;49.404;11.034;2023-08-20T00:27:13;13.23;;;9.00;;
75626;SDS011;67372;49.404;11.034;2023-08-20T00:29:40;11.73;;;8.57;;
75626;SDS011;67372;49.404;11.034;2023-08-20T00:32:06;12.20;;;8.88;;
75626;SDS011;67372;49.404;11.034;2023-08-20T00:34:33;13.90;;;9.02;;
75626;SDS011;67372;49.404;11.034;2023-08-20T00:36:59;12.40;;;8.63;;
75626;SDS011;67372;49.404;11.034;2023-08-20T00:39:25;13.95;;;9.32;;
75626;SDS011;67372;49.404;11.034;2023-08-20T00:41:52;14.75;;;9.20;;
75626;SDS011;67372;49.404;11.034;2023-08-20T00:44:18;11.82;;;8.43;;
75626;SDS011;67372;49.404;11.034;2023-08-20T00:46:45;16.38;;;9.75;;
75626;SDS011;67372;49.404;11.034;2023-08-20T00:49:11;12.35;;;8.65;;
75626;SDS011;67372;49.404;11.034;2023-08-20T00:51:38;12.23;;;8.55;;
75626;SDS011;67372;49.404;11.034;2023-08-20T00:54:05;13.27;;;9.02;;
75626;SDS011;67372;49.404;11.034;2023-08-20T00:56:31;15.95;;;9.30;;
75626;SDS011;67372;49.404;11.034;2023-08-20T00:58:58;12.32;;;8.82;;
75626;SDS011;67372;49.404;11.034;2023-08-20T01:01:24;12.80;;;9.10;;
75626;SDS011;67372;49.404;11.034;2023-08-20T01:03:52;11.90;;;9.00;;
75626;SDS011;67372;49.404;11.034;2023-08-20T01:11:45;12.50;;;8.93;;
75626;SDS011;67372;49.404;11.034;2023-08-20T01:14:16;14.27;;;8.75;;
75626;SDS011;67372;49.404;11.034;2023-08-20T01:16:44;13.75;;;8.85;;
75626;SDS011;67372;49.404;11.034;2023-08-20T01:19:13;13.07;;;8.85;;
75626;SDS011;67372;49.404;11.034;2023-08-20T01:22:00;13.75;;;8.68;;
75626;SDS011;67372;49.404;11.034;2023-08-20T01:24:37;11.63;;;9.10;;
75626;SDS011;67372;49.404;11.034;2023-08-20T01:30:00;16.50;;;9.35;;
75626;SDS011;67372;49.404;11.034;2023-08-20T01:32:28;13.88;;;9.05;;
75626;SDS011;67372;49.404;11.034;2023-08-20T01:34:55;12.90;;;9.18;;
75626;SDS011;67372;49.404;11.034;2023-08-20T01:37:22;13.77;;;10.02;;
75626;SDS011;67372;49.404;11.034;2023-08-20T01:39:49;14.55;;;9.40;;
75626;SDS011;67372;49.404;11.034;2023-08-20T01:42:15;13.93;;;9.50;;
75626;SDS011;67372;49.404;11.034;2023-08-20T01:44:42;11.48;;;9.15;;
75626;SDS011;67372;49.404;11.034;2023-08-20T01:47:08;12.32;;;9.35;;
75626;SDS011;67372;49.404;11.034;2023-08-20T01:49:34;15.43;;;9.20;;
75626;SDS011;67372;49.404;11.034;2023-08-20T01:52:01;13.13;;;8.80;;
75626;SDS011;67372;49.404;11.034;2023-08-20T01:54:27;12.32;;;9.43;;
75626;SDS011;67372;49.404;11.034;2023-08-20T01:56:54;11.93;;;8.80;;
75626;SDS011;67372;49.404;11.034;2023-08-20T01:59:21;13.85;;;9.68;;
75626;SDS011;67372;49.404;11.034;2023-08-20T02:01:48;12.02;;;9.15;;
75626;SDS011;67372;49.404;11.034;2023-08-20T02:04:14;15.15;;;9.85;;
75626;SDS011;67372;49.404;11.034;2023-08-20T02:06:41;12.85;;;9.35;;
75626;SDS011;67372;49.404;11.034;2023-08-20T02:09:07;14.20;;;9.48;;
75626;SDS011;67372;49.404;11.034;2023-08-20T02:11:33;13.57;;;9.70;;
75626;SDS011;67372;49.404;11.034;2023-08-20T02:14:00;13.40;;;9.35;;
75626;SDS011;67372;49.404;11.034;2023-08-20T02:16:26;13.10;;;9.50;;
75626;SDS011;67372;49.404;11.034;2023-08-20T02:18:53;13.60;;;9.13;;
75626;SDS011;67372;49.404;11.034;2023-08-20T02:21:19;12.27;;;9.38;;
75626;SDS011;67372;49.404;11.034;2023-08-20T02:23:45;13.48;;;9.55;;
75626;SDS011;67372;49.404;11.034;2023-08-20T02:26:12;15.43;;;10.05;;
75626;SDS011;67372;49.404;11.034;2023-08-20T02:28:38;13.40;;;9.43;;
75626;SDS011;67372;49.404;11.034;2023-08-20T02:31:04;14.35;;;10.23;;
75626;SDS011;67372;49.404;11.034;2023-08-20T02:33:31;13.90;;;9.73;;
75626;SDS011;67372;49.404;11.034;2023-08-20T02:36:03;13.77;;;9.43;;
75626;SDS011;67372;49.404;11.034;2023-08-20T02:38:30;14.40;;;9.07;;
75626;SDS011;67372;49.404;11.034;2023-08-20T02:40:56;12.75;;;9.23;;
75626;SDS011;67372;49.404;11.034;2023-08-20T02:43:23;13.43;;;9.30;;
75626;SDS011;67372;49.404;11.034;2023-08-20T02:45:49;14.55;;;9.80;;
75626;SDS011;67372;49.404;11.034;2023-08-20T02:48:16;12.68;;;9.32;;
75626;SDS011;67372;49.404;11.034;2023-08-20T02:50:43;15.75;;;10.23;;
75626;SDS011;67372;49.404;11.034;2023-08-20T02:53:10;15.23;;;10.15;;
75626;SDS011;67372;49.404;11.034;2023-08-20T02:55:36;13.55;;;9.13;;
75626;SDS011;67372;49.404;11.034;2023-08-20T02:58:03;13.98;;;9.73;;
75626;SDS011;67372;49.404;11.034;2023-08-20T03:00:30;13.35;;;10.30;;
75626;SDS011;67372;49.404;11.034;2023-08-20T03:02:56;12.98;;;9.30;;
75626;SDS011;67372;49.404;11.034;2023-08-20T03:05:23;14.93;;;9.88;;
75626;SDS011;67372;49.404;11.034;2023-08-20T03:07:49;16.02;;;10.38;;
75626;SDS011;67372;49.404;11.034;2023-08-20T03:10:16;14.02;;;10.73;;
75626;SDS011;67372;49.404;11.034;2023-08-20T03:12:42;14.27;;;9.60;;
75626;SDS011;67372;49.404;11.034;2023-08-20T03:15:09;12.77;;;9.23;;
75626;SDS011;67372;49.404;11.034;2023-08-20T03:17:35;13.88;;;9.45;;
75626;SDS011;67372;49.404;11.034;2023-08-20T03:20:03;14.80;;;10.15;;
75626;SDS011;67372;49.404;11.034;2023-08-20T03:22:29;14.88;;;9.45;;
75626;SDS011;67372;49.404;11.034;2023-08-20T03:24:55;12.85;;;9.45;;
75626;SDS011;67372;49.404;11.034;2023-08-20T03:27:22;12.30;;;10.05;;
75626;SDS011;67372;49.404;11.034;2023-08-20T03:29:48;15.02;;;9.43;;
75626;SDS011;67372;49.404;11.034;2023-08-20T03:32:15;15.25;;;9.65;;
75626;SDS011;67372;49.404;11.034;2023-08-20T03:34:41;14.30;;;9.93;;
75626;SDS011;67372;49.404;11.034;2023-08-20T03:37:08;15.45;;;9.80;;
75626;SDS011;67372;49.404;11.034;2023-08-20T03:39:34;13.75;;;9.90;;
75626;SDS011;67372;49.404;11.034;2023-08-20T03:42:01;13.98;;;9.55;;
75626;SDS011;67372;49.404;11.034;2023-08-20T03:44:27;11.82;;;9.27;;
75626;SDS011;67372;49.404;11.034;2023-08-20T03:46:53;13.63;;;9.25;;
75626;SDS011;67372;49.404;11.034;2023-08-20T03:49:20;12.07;;;8.75;;
75626;SDS011;67372;49.404;11.034;2023-08-20T03:51:46;16.08;;;9.85;;
75626;SDS011;67372;49.404;11.034;2023-08-20T03:54:13;15.73;;;10.40;;
75626;SDS011;67372;49.404;11.034;2023-08-20T03:56:39;13.50;;;9.43;;
75626;SDS011;67372;49.404;11.034;2023-08-20T03:59:06;18.17;;;10.82;;
75626;SDS011;67372;49.404;11.034;2023-08-20T04:01:32;14.10;;;9.57;;
75626;SDS011;67372;49.404;11.034;2023-08-20T04:03:59;13.60;;;9.93;;
75626;SDS011;67372;49.404;11.034;2023-08-20T04:08:52;19.02;;;9.23;;
75626;SDS011;67372;49.404;11.034;2023-08-20T04:11:19;14.98;;;9.68;;
75626;SDS011;67372;49.404;11.034;2023-08-20T04:13:45;13.27;;;9.10;;
75626;SDS011;67372;49.404;11.034;2023-08-20T04:16:12;12.00;;;8.63;;
75626;SDS011;67372;49.404;11.034;2023-08-20T04:18:39;12.90;;;9.57;;
75626;SDS011;67372;49.404;11.034;2023-08-20T04:21:06;15.07;;;9.88;;
75626;SDS011;67372;49.404;11.034;2023-08-20T04:23:32;13.50;;;9.82;;
75626;SDS011;67372;49.404;11.034;2023-08-20T04:25:59;13.73;;;9.48;;
75626;SDS011;67372;49.404;11.034;2023-08-20T04:28:25;12.32;;;9.55;;
75626;SDS011;67372;49.404;11.034;2023-08-20T04:30:52;13.95;;;8.82;;
75626;SDS011;67372;49.404;11.034;2023-08-20T04:33:19;14.30;;;9.95;;
75626;SDS011;67372;49.404;11.034;2023-08-20T04:35:46;13.63;;;9.60;;
75626;SDS011;67372;49.404;11.034;2023-08-20T04:38:14;13.65;;;9.65;;
75626;SDS011;67372;49.404;11.034;2023-08-20T04:40:41;13.43;;;9.30;;
75626;SDS011;67372;49.404;11.034;2023-08-20T04:43:07;13.25;;;9.70;;
75626;SDS011;67372;49.404;11.034;2023-08-20T04:45:33;13.52;;;9.18;;
75626;SDS011;67372;49.404;11.034;2023-08-20T04:48:00;15.30;;;9.40;;
75626;SDS011;67372;49.404;11.034;2023-08-20T04:50:26;13.80;;;9.45;;
75626;SDS011;67372;49.404;11.034;2023-08-20T04:52:53;12.65;;;9.13;;
75626;SDS011;67372;49.404;11.034;2023-08-20T04:55:19;14.38;;;10.27;;
75626;SDS011;67372;49.404;11.034;2023-08-20T04:57:45;15.05;;;9.60;;
75626;SDS011;67372;49.404;11.034;2023-08-20T05:00:12;13.88;;;9.55;;
75626;SDS011;67372;49.404;11.034;2023-08-20T05:02:39;13.13;;;9.80;;
75626;SDS011;67372;49.404;11.034;2023-08-20T05:07:32;13.20;;;9.18;;
75626;SDS011;67372;49.404;11.034;2023-08-20T05:09:58;13.60;;;10.02;;
75626;SDS011;67372;49.404;11.034;2023-08-20T05:12:25;14.30;;;9.23;;
75626;SDS011;67372;49.404;11.034;2023-08-20T05:14:51;13.88;;;9.93;;
75626;SDS011;67372;49.404;11.034;2023-08-20T05:17:17;12.77;;;9.40;;
75626;SDS011;67372;49.404;11.034;2023-08-20T05:19:44;13.95;;;10.50;;
75626;SDS011;67372;49.404;11.034;2023-08-20T05:22:10;14.02;;;9.63;;
75626;SDS011;67372;49.404;11.034;2023-08-20T05:24:37;14.48;;;10.05;;
75626;SDS011;67372;49.404;11.034;2023-08-20T05:29:41;11.63;;;9.43;;
75626;SDS011;67372;49.404;11.034;2023-08-20T05:32:07;15.70;;;9.48;;
75626;SDS011;67372;49.404;11.034;2023-08-20T05:34:34;13.98;;;9.77;;
75626;SDS011;67372;49.404;11.034;2023-08-20T05:37:00;13.80;;;9.32;;
75626;SDS011;67372;49.404;11.034;2023-08-20T05:39:29;12.77;;;9.20;;
75626;SDS011;67372;49.404;11.034;2023-08-20T05:41:56;13.82;;;9.73;;
75626;SDS011;67372;49.404;11.034;2023-08-20T05:44:22;12.50;;;9.32;;
75626;SDS011;67372;49.404;11.034;2023-08-20T05:46:49;14.60;;;9.68;;
75626;SDS011;67372;49.404;11.034;2023-08-20T05:49:15;14.50;;;9.85;;
75626;SDS011;67372;49.404;11.034;2023-08-20T05:51:42;12.85;;;9.85;;
75626;SDS011;67372;49.404;11.034;2023-08-20T05:54:09;13.55;;;10.52;;
75626;SDS011;67372;49.404;11.034;2023-08-20T05:56:35;13.60;;;9.55;;
75626;SDS011;67372;49.404;11.034;2023-08-20T05:59:02;14.88;;;9.80;;
75626;SDS011;67372;49.404;11.034;2023-08-20T06:01:29;13.43;;;10.18;;
75626;SDS011;67372;49.404;11.034;2023-08-20T06:03:55;14.80;;;10.18;;
75626;SDS011;67372;49.404;11.034;2023-08-20T06:06:22;17.70;;;10.68;;
75626;SDS011;67372;49.404;11.034;2023-08-20T06:08:48;14.00;;;10.27;;
75626;SDS011;67372;49.404;11.034;2023-08-20T06:11:33;19.25;;;11.13;;
75626;SDS011;67372;49.404;11.034;2023-08-20T06:13:59;16.10;;;11.68;;
75626;SDS011;67372;49.404;11.034;2023-08-20T06:16:25;16.17;;;10.95;;
75626;SDS011;67372;49.404;11.034;2023-08-20T06:18:52;14.07;;;11.32;;
75626;SDS011;67372;49.404;11.034;2023-08-20T06:21:22;13.60;;;10.93;;
75626;SDS011;67372;49.404;11.034;2023-08-20T06:23:48;13.73;;;11.20;;
75626;SDS011;67372;49.404;11.034;2023-08-20T06:26:14;13.18;;;10.93;;
75626;SDS011;67372;49.404;11.034;2023-08-20T06:28:41;14.77;;;11.55;;
75626;SDS011;67372;49.404;11.034;2023-08-20T06:31:07;14.60;;;11.20;;
75626;SDS011;67372;49.404;11.034;2023-08-20T06:33:33;14.98;;;11.38;;
75626;SDS011;67372;49.404;11.034;2023-08-20T06:36:00;16.33;;;12.05;;
75626;SDS011;67372;49.404;11.034;2023-08-20T06:38:26;16.17;;;11.15;;
75626;SDS011;67372;49.404;11.034;2023-08-20T06:40:53;16.02;;;11.63;;
75626;SDS011;67372;49.404;11.034;2023-08-20T06:43:19;14.38;;;11.77;;
75626;SDS011;67372;49.404;11.034;2023-08-20T06:45:45;15.82;;;11.90;;
75626;SDS011;67372;49.404;11.034;2023-08-20T06:48:12;15.30;;;11.32;;
75626;SDS011;67372;49.404;11.034;2023-08-20T06:50:38;14.15;;;11.38;;
75626;SDS011;67372;49.404;11.034;2023-08-20T06:53:05;17.55;;;11.75;;
75626;SDS011;67372;49.404;11.034;2023-08-20T06:55:31;13.85;;;11.48;;
75626;SDS011;67372;49.404;11.034;2023-08-20T06:57:57;16.20;;;11.75;;
75626;SDS011;67372;49.404;11.034;2023-08-20T07:00:24;14.48;;;11.70;;
75626;SDS011;67372;49.404;11.034;2023-08-20T07:02:50;15.90;;;11.40;;
75626;SDS011;67372;49.404;11.034;2023-08-20T07:05:16;14.27;;;11.77;;
75626;SDS011;67372;49.404;11.034;2023-08-20T07:07:43;17.05;;;11.43;;
75626;SDS011;67372;49.404;11.034;2023-08-20T07:10:09;14.18;;;11.57;;
75626;SDS011;67372;49.404;11.034;2023-08-20T07:12:36;13.55;;;10.85;;
75626;SDS011;67372;49.404;11.034;2023-08-20T07:15:02;15.27;;;11.68;;
75626;SDS011;67372;49.404;11.034;2023-08-20T07:17:29;14.75;;;11.05;;
75626;SDS011;67372;49.404;11.034;2023-08-20T07:19:55;12.75;;;11.23;;
75626;SDS011;67372;49.404;11.034;2023-08-20T07:22:22;15.18;;;11.45;;
75626;SDS011;67372;49.404;11.034;2023-08-20T07:24:48;14.07;;;11.35;;
75626;SDS011;67372;49.404;11.034;2023-08-20T07:27:14;15.68;;;11.57;;
75626;SDS011;67372;49.404;11.034;2023-08-20T07:29:41;14.30;;;10.82;;
75626;SDS011;67372;49.404;11.034;2023-08-20T07:32:07;11.93;;;8.93;;
75626;SDS011;67372;49.404;11.034;2023-08-20T07:34:34;12.85;;;9.30;;
75626;SDS011;67372;49.404;11.034;2023-08-20T07:37:00;10.20;;;8.35;;
75626;SDS011;67372;49.404;11.034;2023-08-20T07:39:27;12.13;;;8.52;;
75626;SDS011;67372;49.404;11.034;2023-08-20T07:41:53;12.43;;;8.80;;
75626;SDS011;67372;49.404;11.034;2023-08-20T07:44:19;11.63;;;9.30;;
75626;SDS011;67372;49.404;11.034;2023-08-20T07:46:46;10.32;;;8.15;;
75626;SDS011;67372;49.404;11.034;2023-08-20T07:49:12;8.88;;;7.55;;
75626;SDS011;67372;49.404;11.034;2023-08-20T07:51:38;10.45;;;7.25;;
75626;SDS011;67372;49.404;11.034;2023-08-20T07:54:05;15.82;;;7.95;;
75626;SDS011;67372;49.404;11.034;2023-08-20T07:56:31;9.25;;;7.72;;
75626;SDS011;67372;49.404;11.034;2023-08-20T07:58:58;9.98;;;7.93;;
75626;SDS011;67372;49.404;11.034;2023-08-20T08:01:24;11.80;;;8.15;;
75626;SDS011;67372;49.404;11.034;2023-08-20T08:03:51;10.10;;;8.32;;
75626;SDS011;67372;49.404;11.034;2023-08-20T08:06:17;11.43;;;8.23;;
75626;SDS011;67372;49.404;11.034;2023-08-20T08:08:43;10.10;;;8.38;;
75626;SDS011;67372;49.404;11.034;2023-08-20T08:11:10;11.18;;;8.80;;
75626;SDS011;67372;49.404;11.034;2023-08-20T08:13:36;11.23;;;9.20;;
75626;SDS011;67372;49.404;11.034;2023-08-20T08:16:03;12.68;;;8.88;;
75626;SDS011;67372;49.404;11.034;2023-08-20T08:18:29;13.52;;;8.85;;
75626;SDS011;67372;49.404;11.034;2023-08-20T08:20:56;11.18;;;8.80;;
75626;SDS011;67372;49.404;11.034;2023-08-20T08:23:22;10.23;;;8.70;;
75626;SDS011;67372;49.404;11.034;2023-08-20T08:25:48;9.23;;;7.60;;
75626;SDS011;67372;49.404;11.034;2023-08-20T08:28:15;12.32;;;8.05;;
75626;SDS011;67372;49.404;11.034;2023-08-20T08:30:41;10.55;;;7.70;;
75626;SDS011;67372;49.404;11.034;2023-08-20T08:33:08;11.82;;;7.68;;
75626;SDS011;67372;49.404;11.034;2023-08-20T08:35:34;9.77;;;8.05;;
75626;SDS011;67372;49.404;11.034;2023-08-20T08:38:01;12.27;;;8.63;;
75626;SDS011;67372;49.404;11.034;2023-08-20T08:40:27;9.75;;;8.68;;
75626;SDS011;67372;49.404;11.034;2023-08-20T08:42:55;9.73;;;8.05;;
75626;SDS011;67372;49.404;11.034;2023-08-20T08:45:22;11.07;;;8.07;;
75626;SDS011;67372;49.404;11.034;2023-08-20T08:47:49;10.10;;;7.65;;
75626;SDS011;67372;49.404;11.034;2023-08-20T08:50:16;10.23;;;7.85;;
75626;SDS011;67372;49.404;11.034;2023-08-20T08:52:44;11.40;;;7.72;;
75626;SDS011;67372;49.404;11.034;2023-08-20T08:55:12;9.20;;;7.60;;
75626;SDS011;67372;49.404;11.034;2023-08-20T08:57:39;10.85;;;7.10;;
75626;SDS011;67372;49.404;11.034;2023-08-20T09:00:05;8.85;;;7.30;;
75626;SDS011;67372;49.404;11.034;2023-08-20T09:02:32;9.88;;;6.88;;
75626;SDS011;67372;49.404;11.034;2023-08-20T09:04:58;9.18;;;6.80;;
75626;SDS011;67372;49.404;11.034;2023-08-20T09:07:25;7.22;;;6.22;;
75626;SDS011;67372;49.404;11.034;2023-08-20T09:09:56;7.75;;;6.60;;
75626;SDS011;67372;49.404;11.034;2023-08-20T09:12:24;11.65;;;7.30;;
75626;SDS011;67372;49.404;11.034;2023-08-20T09:14:51;9.10;;;6.80;;
75626;SDS011;67372;49.404;11.034;2023-08-20T09:17:18;10.02;;;6.80;;
75626;SDS011;67372;49.404;11.034;2023-08-20T09:19:45;9.18;;;6.32;;
75626;SDS011;67372;49.404;11.034;2023-08-20T09:22:12;9.25;;;6.53;;
75626;SDS011;67372;49.404;11.034;2023-08-20T09:24:46;8.40;;;7.18;;
75626;SDS011;67372;49.404;11.034;2023-08-20T09:27:19;8.68;;;6.82;;
75626;SDS011;67372;49.404;11.034;2023-08-20T09:29:46;9.48;;;6.90;;
75626;SDS011;67372;49.404;11.034;2023-08-20T09:32:24;9.98;;;6.93;;
75626;SDS011;67372;49.404;11.034;2023-08-20T09:34:52;10.25;;;7.25;;
75626;SDS011;67372;49.404;11.034;2023-08-20T09:37:20;9.02;;;6.97;;
75626;SDS011;67372;49.404;11.034;2023-08-20T09:39:49;13.43;;;7.47;;
75626;SDS011;67372;49.404;11.034;2023-08-20T09:42:15;9.32;;;6.35;;
75626;SDS011;67372;49.404;11.034;2023-08-20T09:44:43;12.68;;;7.20;;
75626;SDS011;67372;49.404;11.034;2023-08-20T09:47:13;10.65;;;6.70;;
75626;SDS011;67372;49.404;11.034;2023-08-20T09:49:41;9.98;;;6.93;;
75626;SDS011;67372;49.404;11.034;2023-08-20T09:52:09;9.18;;;6.45;;
75626;SDS011;67372;49.404;11.034;2023-08-20T09:55:01;10.30;;;6.85;;
75626;SDS011;67372;49.404;11.034;2023-08-20T09:57:38;8.82;;;6.43;;
75626;SDS011;67372;49.404;11.034;2023-08-20T10:00:10;7.28;;;6.50;;
75626;SDS011;67372;49.404;11.034;2023-08-20T10:02:37;10.23;;;6.85;;
75626;SDS011;67372;49.404;11.034;2023-08-20T10:05:05;7.85;;;7.00;;
75626;SDS011;67372;49.404;11.034;2023-08-20T10:07:33;8.70;;;6.57;;
75626;SDS011;67372;49.404;11.034;2023-08-20T10:10:02;8.32;;;6.70;;
75626;SDS011;67372;49.404;11.034;2023-08-20T10:12:33;8.15;;;6.25;;
75626;SDS011;67372;49.404;11.034;2023-08-20T10:15:01;9.80;;;6.28;;
75626;SDS011;67372;49.404;11.034;2023-08-20T10:17:32;7.35;;;5.82;;
75626;SDS011;67372;49.404;11.034;2023-08-20T10:20:01;9.43;;;6.10;;
75626;SDS011;67372;49.404;11.034;2023-08-20T10:22:32;10.52;;;6.10;;
75626;SDS011;67372;49.404;11.034;2023-08-20T10:24:59;7.32;;;6.13;;
75626;SDS011;67372;49.404;11.034;2023-08-20T10:27:30;6.45;;;5.68;;
75626;SDS011;67372;49.404;11.034;2023-08-20T10:29:59;8.00;;;6.15;;
75626;SDS011;67372;49.404;11.034;2023-08-20T10:32:46;7.28;;;5.93;;
75626;SDS011;67372;49.404;11.034;2023-08-20T10:35:15;11.52;;;6.18;;
75626;SDS011;67372;49.404;11.034;2023-08-20T10:43:28;6.43;;;5.70;;
75626;SDS011;67372;49.404;11.034;2023-08-20T10:56:45;8.35;;;6.38;;
75626;SDS011;67372;49.404;11.034;2023-08-20T10:59:27;7.55;;;6.00;;
75626;SDS011;67372;49.404;11.034;2023-08-20T11:01:55;8.35;;;5.85;;
75626;SDS011;67372;49.404;11.034;2023-08-20T11:04:23;8.75;;;5.90;;
75626;SDS011;67372;49.404;11.034;2023-08-20T11:06:54;7.22;;;5.47;;
75626;SDS011;67372;49.404;11.034;2023-08-20T11:09:23;9.95;;;6.00;;
75626;SDS011;67372;49.404;11.034;2023-08-20T11:11:51;7.55;;;5.43;;
75626;SDS011;67372;49.404;11.034;2023-08-20T11:14:18;6.10;;;5.50;;
75626;SDS011;67372;49.404;11.034;2023-08-20T11:16:45;7.25;;;6.22;;
75626;SDS011;67372;49.404;11.034;2023-08-20T11:19:13;8.38;;;6.07;;
75626;SDS011;67372;49.404;11.034;2023-08-20T11:21:42;9.27;;;6.03;;
75626;SDS011;67372;49.404;11.034;2023-08-20T11:24:09;8.50;;;5.80;;
75626;SDS011;67372;49.404;11.034;2023-08-20T11:26:40;6.72;;;5.40;;
75626;SDS011;67372;49.404;11.034;2023-08-20T11:31:34;9.10;;;5.55;;
75626;SDS011;67372;49.404;11.034;2023-08-20T11:34:03;8.40;;;5.60;;
75626;SDS011;67372;49.404;11.034;2023-08-20T11:36:30;6.20;;;5.47;;
75626;SDS011;67372;49.404;11.034;2023-08-20T11:38:57;8.25;;;5.68;;
75626;SDS011;67372;49.404;11.034;2023-08-20T11:41:24;6.50;;;5.18;;
75626;SDS011;67372;49.404;11.034;2023-08-20T11:43:53;7.15;;;5.03;;
75626;SDS011;67372;49.404;11.034;2023-08-20T11:46:21;8.45;;;5.40;;
75626;SDS011;67372;49.404;11.034;2023-08-20T11:49:05;6.50;;;5.22;;
75626;SDS011;67372;49.404;11.034;2023-08-20T11:51:38;7.35;;;4.70;;
75626;SDS011;67372;49.404;11.034;2023-08-20T11:54:10;7.00;;;4.80;;
75626;SDS011;67372;49.404;11.034;2023-08-20T11:56:48;7.60;;;5.30;;
75626;SDS011;67372;49.404;11.034;2023-08-20T11:59:16;8.25;;;5.20;;
75626;SDS011;67372;49.404;11.034;2023-08-20T12:06:52;7.63;;;5.05;;
75626;SDS011;67372;49.404;11.034;2023-08-20T12:09:28;8.38;;;4.90;;
75626;SDS011;67372;49.404;11.034;2023-08-20T12:14:21;6.88;;;4.80;;
75626;SDS011;67372;49.404;11.034;2023-08-20T12:16:48;6.95;;;4.60;;
75626;SDS011;67372;49.404;11.034;2023-08-20T12:21:44;6.18;;;4.63;;
75626;SDS011;67372;49.404;11.034;2023-08-20T12:24:10;8.77;;;4.28;;
75626;SDS011;67372;49.404;11.034;2023-08-20T12:26:40;7.00;;;4.40;;
75626;SDS011;67372;49.404;11.034;2023-08-20T12:29:07;8.20;;;4.68;;
75626;SDS011;67372;49.404;11.034;2023-08-20T12:31:34;5.32;;;4.25;;
75626;SDS011;67372;49.404;11.034;2023-08-20T12:34:01;6.40;;;4.30;;
75626;SDS011;67372;49.404;11.034;2023-08-20T12:36:28;9.30;;;4.50;;
75626;SDS011;67372;49.404;11.034;2023-08-20T12:38:54;5.93;;;4.72;;
75626;SDS011;67372;49.404;11.034;2023-08-20T12:41:21;5.43;;;4.45;;
75626;SDS011;67372;49.404;11.034;2023-08-20T12:43:48;6.50;;;5.10;;
75626;SDS011;67372;49.404;11.034;2023-08-20T12:48:41;5.50;;;4.20;;
75626;SDS011;67372;49.404;11.034;2023-08-20T12:53:34;5.20;;;4.45;;
75626;SDS011;67372;49.404;11.034;2023-08-20T12:56:03;8.20;;;4.85;;
75626;SDS011;67372;49.404;11.034;2023-08-20T12:58:29;8.32;;;4.65;;
75626;SDS011;67372;49.404;11.034;2023-08-20T13:00:56;7.57;;;4.28;;
75626;SDS011;67372;49.404;11.034;2023-08-20T13:03:22;5.82;;;4.20;;
75626;SDS011;67372;49.404;11.034;2023-08-20T13:05:49;6.80;;;4.55;;
75626;SDS011;67372;49.404;11.034;2023-08-20T13:08:16;5.15;;;4.30;;
75626;SDS011;67372;49.404;11.034;2023-08-20T13:10:43;6.43;;;4.43;;
75626;SDS011;67372;49.404;11.034;2023-08-20T13:13:18;7.05;;;4.32;;
75626;SDS011;67372;49.404;11.034;2023-08-20T13:15:48;5.15;;;4.40;;
75626;SDS011;67372;49.404;11.034;2023-08-20T13:18:15;5.78;;;4.15;;
75626;SDS011;67372;49.404;11.034;2023-08-20T13:20:42;5.53;;;4.40;;
75626;SDS011;67372;49.404;11.034;2023-08-20T13:23:09;6.40;;;4.00;;
75626;SDS011;67372;49.404;11.034;2023-08-20T13:25:36;5.90;;;4.50;;
75626;SDS011;67372;49.404;11.034;2023-08-20T13:28:02;5.68;;;4.38;;
75626;SDS011;67372;49.404;11.034;2023-08-20T13:30:29;5.47;;;4.65;;
75626;SDS011;67372;49.404;11.034;2023-08-20T13:32:55;5.88;;;4.45;;
75626;SDS011;67372;49.404;11.034;2023-08-20T13:35:22;6.25;;;4.70;;
75626;SDS011;67372;49.404;11.034;2023-08-20T13:37:48;6.10;;;4.47;;
75626;SDS011;67372;49.404;11.034;2023-08-20T13:40:15;5.85;;;4.53;;
75626;SDS011;67372;49.404;11.034;2023-08-20T13:45:07;6.25;;;4.35;;
75626;SDS011;67372;49.404;11.034;2023-08-20T13:47:34;5.15;;;3.95;;
75626;SDS011;67372;49.404;11.034;2023-08-20T13:50:01;6.82;;;4.47;;
75626;SDS011;67372;49.404;11.034;2023-08-20T13:52:27;7.57;;;4.32;;
75626;SDS011;67372;49.404;11.034;2023-08-20T13:57:20;4.75;;;4.20;;
75626;SDS011;67372;49.404;11.034;2023-08-20T13:59:46;6.25;;;3.90;;
75626;SDS011;67372;49.404;11.034;2023-08-20T14:02:12;6.25;;;4.25;;
75626;SDS011;67372;49.404;11.034;2023-08-20T14:04:39;6.22;;;3.92;;
75626;SDS011;67372;49.404;11.034;2023-08-20T14:09:32;6.15;;;4.50;;
75626;SDS011;67372;49.404;11.034;2023-08-20T14:11:58;5.45;;;4.38;;
75626;SDS011;67372;49.404;11.034;2023-08-20T14:16:51;5.13;;;3.63;;
75626;SDS011;67372;49.404;11.034;2023-08-20T14:21:44;4.18;;;3.60;;
75626;SDS011;67372;49.404;11.034;2023-08-20T14:26:36;8.05;;;4.10;;
75626;SDS011;67372;49.404;11.034;2023-08-20T14:29:03;6.90;;;4.45;;
75626;SDS011;67372;49.404;11.034;2023-08-20T14:31:30;4.45;;;3.92;;
75626;SDS011;67372;49.404;11.034;2023-08-20T14:33:57;5.20;;;4.20;;
75626;SDS011;67372;49.404;11.034;2023-08-20T14:38:50;7.00;;;4.30;;
75626;SDS011;67372;49.404;11.034;2023-08-20T14:41:16;5.22;;;4.20;;
75626;SDS011;67372;49.404;11.034;2023-08-20T14:43:43;4.85;;;4.00;;
75626;SDS011;67372;49.404;11.034;2023-08-20T14:46:09;6.40;;;4.03;;
75626;SDS011;67372;49.404;11.034;2023-08-20T14:48:35;4.63;;;4.10;;
75626;SDS011;67372;49.404;11.034;2023-08-20T14:53:28;5.35;;;4.00;;
75626;SDS011;67372;49.404;11.034;2023-08-20T14:55:55;5.97;;;3.90;;
75626;SDS011;67372;49.404;11.034;2023-08-20T15:00:48;7.60;;;4.28;;
75626;SDS011;67372;49.404;11.034;2023-08-20T15:03:15;5.45;;;4.35;;
75626;SDS011;67372;49.404;11.034;2023-08-20T15:08:08;6.00;;;3.95;;
75626;SDS011;67372;49.404;11.034;2023-08-20T15:13:01;7.85;;;4.60;;
75626;SDS011;67372;49.404;11.034;2023-08-20T15:17:54;6.45;;;4.22;;
75626;SDS011;67372;49.404;11.034;2023-08-20T15:20:21;5.88;;;4.10;;
75626;SDS011;67372;49.404;11.034;2023-08-20T15:22:47;6.55;;;4.05;;
75626;SDS011;67372;49.404;11.034;2023-08-20T15:27:40;6.35;;;4.22;;
75626;SDS011;67372;49.404;11.034;2023-08-20T15:30:07;5.90;;;4.70;;
75626;SDS011;67372;49.404;11.034;2023-08-20T15:32:34;6.85;;;4.63;;
75626;SDS011;67372;49.404;11.034;2023-08-20T15:35:01;5.43;;;4.20;;
75626;SDS011;67372;49.404;11.034;2023-08-20T15:39:53;5.88;;;4.40;;
75626;SDS011;67372;49.404;11.034;2023-08-20T15:44:46;7.53;;;4.70;;
75626;SDS011;67372;49.404;11.034;2023-08-20T15:47:13;6.88;;;4.45;;
75626;SDS011;67372;49.404;11.034;2023-08-20T15:52:06;8.95;;;4.80;;
75626;SDS011;67372;49.404;11.034;2023-08-20T15:54:32;5.57;;;4.07;;